• Join FlightAware (Why Join?)
  • Login
  • US Flag 
08:46AM EST


 

Airport Tracker/Info


-or-


 

Live Flight TrackerFlight Track Log ✈ N6ZE ✈ 17-Jul-2014 ✈ KTMB - KRSW

Flight Track Log - Related Links

Times and Time Zones

All times are in EDT time to prevent confusion due to time zone crossing. See the N6ZE flight status page for this flight to view local times or setup timezone preferences in your user account.

Time Position Orientation Groundspeed Altitude Reporting Facility
EDT Latitude Longitude Course Direction KTS MPH feet Rate Location/Type
06:55AM 25.6431 -80.5189 297° West 200 230 2,000  Level Miami Center
06:56AM 25.6628 -80.5614 297° West 211 243 2,200 1,440 Climbing Miami Center
06:57AM 25.7103 -80.6119 316° Northwest 237 273 4,600 2,280 Climbing Miami Center
06:58AM 25.7683 -80.6161 356° North 256 295 6,800 2,340 Climbing Miami Center
06:59AM 25.8419 -80.6189 358° North 262 302 9,400 2,520 Climbing Miami Center
07:00AM 25.9306 -80.6214 359° North 262 302 12,000 1,260 Climbing Miami Center
07:01AM 26.0153 -80.6319 354° North 312 359 12,000  Level Miami Center
07:02AM 26.0822 -80.6908 322° Northwest 308 354 12,000  Level Miami Center
07:03AM 26.1483 -80.7511 321° Northwest 308 354 12,000  Level Miami Center
07:04AM 26.2175 -80.8072 324° Northwest 308 354 12,000  Level Miami Center
07:05AM 26.2908 -80.8675 324° Northwest 305 351 12,000 -600 Level Miami Center
07:06AM 26.3578 -80.9222 324° Northwest 302 348 10,900 -1,020 Descending Miami Center
07:07AM 26.4175 -80.9758 321° Northwest 276 318 10,000 -540 Descending Miami Center
07:08AM 26.4336 -81.0569 283° West 267 307 9,900 -120 Descending Miami Center
07:09AM 26.4433 -81.1375 278° West 264 304 9,800 -720 Descending Miami Center
07:10AM 26.4564 -81.2222 280° West 261 300 8,500 -1,320 Descending Miami Center
07:11AM 26.4678 -81.2997 279° West 256 295 7,200 -1,380 Descending Miami Center
07:12AM 26.4794 -81.3753 280° West 251 289 5,800 -1,380 Descending Miami Center
07:13AM 26.4906 -81.4514 279° West 252 290 4,400 -1,380 Descending Miami Center
07:14AM 26.5025 -81.5297 280° West 246 283 3,000 -1,080 Descending Miami Center
07:15AM 26.5325 -81.5897 299° West 228 262 2,300 -720 Descending Miami Center
07:16AM 26.5658 -81.6361 309° West 200 230 1,600 -600 Descending Miami Center
07:17AM 26.5792 -81.6842 287° West 147 169 1,100 -600 Descending Miami Center
07:18AM 26.5636 -81.7142 240° Southwest 117 135 500 4,320 Descending Miami Center
07:19AM 26.5447 -81.7425 233° Southwest 115 132 10,000 9,300 Climbing Miami Center